sensor_id;sensor_type;location;lat;lon;timestamp;temperature;humidity
50556;DHT22;36508;52.512;13.450;2022-09-24T00:01:59;13.50;99.90
50556;DHT22;36508;52.512;13.450;2022-09-24T00:04:26;13.50;99.90
50556;DHT22;36508;52.512;13.450;2022-09-24T00:06:53;13.50;99.90
50556;DHT22;36508;52.512;13.450;2022-09-24T00:09:20;13.50;99.90
50556;DHT22;36508;52.512;13.450;2022-09-24T00:11:49;13.40;99.90
50556;DHT22;36508;52.512;13.450;2022-09-24T00:14:17;13.40;99.90
50556;DHT22;36508;52.512;13.450;2022-09-24T00:16:44;13.40;99.90
50556;DHT22;36508;52.512;13.450;2022-09-24T00:19:12;13.40;99.90
50556;DHT22;36508;52.512;13.450;2022-09-24T00:21:39;13.40;99.90
50556;DHT22;36508;52.512;13.450;2022-09-24T00:24:15;13.20;99.90
50556;DHT22;36508;52.512;13.450;2022-09-24T00:27:13;13.20;99.90
50556;DHT22;36508;52.512;13.450;2022-09-24T00:29:39;13.20;99.90
50556;DHT22;36508;52.512;13.450;2022-09-24T00:32:05;13.30;99.90
50556;DHT22;36508;52.512;13.450;2022-09-24T00:34:31;13.20;99.90
50556;DHT22;36508;52.512;13.450;2022-09-24T00:36:56;13.20;99.90
50556;DHT22;36508;52.512;13.450;2022-09-24T00:39:22;13.20;99.90
50556;DHT22;36508;52.512;13.450;2022-09-24T00:41:47;13.10;99.90
50556;DHT22;36508;52.512;13.450;2022-09-24T00:47:29;13.10;99.90
50556;DHT22;36508;52.512;13.450;2022-09-24T00:50:13;13.00;99.90
50556;DHT22;36508;52.512;13.450;2022-09-24T00:52:43;13.10;99.90
50556;DHT22;36508;52.512;13.450;2022-09-24T00:55:12;13.00;99.90
50556;DHT22;36508;52.512;13.450;2022-09-24T00:57:39;12.90;99.90
50556;DHT22;36508;52.512;13.450;2022-09-24T01:00:06;13.00;99.90
50556;DHT22;36508;52.512;13.450;2022-09-24T01:02:35;12.90;99.90
50556;DHT22;36508;52.512;13.450;2022-09-24T01:05:02;12.90;99.90
50556;DHT22;36508;52.512;13.450;2022-09-24T01:07:27;12.80;99.90
50556;DHT22;36508;52.512;13.450;2022-09-24T01:09:53;12.60;99.90
50556;DHT22;36508;52.512;13.450;2022-09-24T01:12:36;12.70;99.90
50556;DHT22;36508;52.512;13.450;2022-09-24T01:15:27;12.70;99.90
50556;DHT22;36508;52.512;13.450;2022-09-24T01:18:11;12.80;99.90
50556;DHT22;36508;52.512;13.450;2022-09-24T01:20:58;12.70;99.90
50556;DHT22;36508;52.512;13.450;2022-09-24T01:23:53;12.80;99.90
50556;DHT22;36508;52.512;13.450;2022-09-24T01:26:36;12.60;99.90
50556;DHT22;36508;52.512;13.450;2022-09-24T01:29:22;12.50;99.90
50556;DHT22;36508;52.512;13.450;2022-09-24T01:32:10;12.60;99.90
50556;DHT22;36508;52.512;13.450;2022-09-24T01:34:42;12.40;99.90
50556;DHT22;36508;52.512;13.450;2022-09-24T01:37:13;12.30;99.90
50556;DHT22;36508;52.512;13.450;2022-09-24T01:39:41;12.50;99.90
50556;DHT22;36508;52.512;13.450;2022-09-24T01:42:09;12.60;99.90
50556;DHT22;36508;52.512;13.450;2022-09-24T01:44:35;12.70;99.90
50556;DHT22;36508;52.512;13.450;2022-09-24T01:47:04;12.80;99.90
50556;DHT22;36508;52.512;13.450;2022-09-24T01:49:31;12.90;99.90
50556;DHT22;36508;52.512;13.450;2022-09-24T01:52:01;12.90;99.90
50556;DHT22;36508;52.512;13.450;2022-09-24T01:54:41;12.90;99.90
50556;DHT22;36508;52.512;13.450;2022-09-24T01:57:21;12.80;99.90
50556;DHT22;36508;52.512;13.450;2022-09-24T01:59:56;12.80;99.90
50556;DHT22;36508;52.512;13.450;2022-09-24T02:05:11;12.70;99.90
50556;DHT22;36508;52.512;13.450;2022-09-24T02:07:44;12.70;99.90
50556;DHT22;36508;52.512;13.450;2022-09-24T02:10:14;12.70;99.90
50556;DHT22;36508;52.512;13.450;2022-09-24T02:12:40;12.80;99.90
50556;DHT22;36508;52.512;13.450;2022-09-24T02:15:12;12.90;99.90
50556;DHT22;36508;52.512;13.450;2022-09-24T02:17:41;12.80;99.90
50556;DHT22;36508;52.512;13.450;2022-09-24T02:20:12;12.80;99.90
50556;DHT22;36508;52.512;13.450;2022-09-24T02:22:40;12.80;99.90
50556;DHT22;36508;52.512;13.450;2022-09-24T02:25:08;12.90;99.90
50556;DHT22;36508;52.512;13.450;2022-09-24T02:27:35;12.90;99.90
50556;DHT22;36508;52.512;13.450;2022-09-24T02:30:01;12.80;99.90
50556;DHT22;36508;52.512;13.450;2022-09-24T02:32:31;12.90;99.90
50556;DHT22;36508;52.512;13.450;2022-09-24T02:35:01;12.90;99.90
50556;DHT22;36508;52.512;13.450;2022-09-24T02:37:34;13.00;99.90
50556;DHT22;36508;52.512;13.450;2022-09-24T02:40:00;13.00;99.90
50556;DHT22;36508;52.512;13.450;2022-09-24T02:42:27;12.90;99.90
50556;DHT22;36508;52.512;13.450;2022-09-24T02:44:54;12.90;99.90
50556;DHT22;36508;52.512;13.450;2022-09-24T02:47:21;12.80;99.90
50556;DHT22;36508;52.512;13.450;2022-09-24T02:49:48;12.80;99.90
50556;DHT22;36508;52.512;13.450;2022-09-24T02:52:14;12.80;99.90
50556;DHT22;36508;52.512;13.450;2022-09-24T02:54:40;12.80;99.90
50556;DHT22;36508;52.512;13.450;2022-09-24T02:57:07;12.90;99.90
50556;DHT22;36508;52.512;13.450;2022-09-24T02:59:35;12.80;99.90
50556;DHT22;36508;52.512;13.450;2022-09-24T03:02:00;12.80;99.90
50556;DHT22;36508;52.512;13.450;2022-09-24T03:04:26;12.80;99.90
50556;DHT22;36508;52.512;13.450;2022-09-24T03:06:53;12.80;99.90
50556;DHT22;36508;52.512;13.450;2022-09-24T03:09:18;12.80;99.90
50556;DHT22;36508;52.512;13.450;2022-09-24T03:11:44;12.70;99.90
50556;DHT22;36508;52.512;13.450;2022-09-24T03:14:10;12.70;99.90
50556;DHT22;36508;52.512;13.450;2022-09-24T03:16:36;12.70;99.90
50556;DHT22;36508;52.512;13.450;2022-09-24T03:19:02;12.70;99.90
50556;DHT22;36508;52.512;13.450;2022-09-24T03:21:27;12.70;99.90
50556;DHT22;36508;52.512;13.450;2022-09-24T03:23:53;12.60;99.90
50556;DHT22;36508;52.512;13.450;2022-09-24T03:26:18;12.40;99.90
50556;DHT22;36508;52.512;13.450;2022-09-24T03:28:44;12.50;99.90
50556;DHT22;36508;52.512;13.450;2022-09-24T03:31:10;12.50;99.90
50556;DHT22;36508;52.512;13.450;2022-09-24T03:33:44;12.50;99.90
50556;DHT22;36508;52.512;13.450;2022-09-24T03:36:18;12.50;99.90
50556;DHT22;36508;52.512;13.450;2022-09-24T03:38:46;12.60;99.90
50556;DHT22;36508;52.512;13.450;2022-09-24T03:41:13;12.50;99.90
50556;DHT22;36508;52.512;13.450;2022-09-24T03:43:39;12.50;99.90
50556;DHT22;36508;52.512;13.450;2022-09-24T03:46:06;12.50;99.90
50556;DHT22;36508;52.512;13.450;2022-09-24T03:48:37;12.50;99.90
50556;DHT22;36508;52.512;13.450;2022-09-24T03:51:14;12.40;99.90
50556;DHT22;36508;52.512;13.450;2022-09-24T03:53:40;12.40;99.90
50556;DHT22;36508;52.512;13.450;2022-09-24T03:56:06;12.50;99.90
50556;DHT22;36508;52.512;13.450;2022-09-24T03:58:34;12.50;99.90
50556;DHT22;36508;52.512;13.450;2022-09-24T04:01:09;12.50;99.90
50556;DHT22;36508;52.512;13.450;2022-09-24T04:03:37;12.40;99.90
50556;DHT22;36508;52.512;13.450;2022-09-24T04:06:04;12.50;99.90
50556;DHT22;36508;52.512;13.450;2022-09-24T04:08:30;12.60;99.90
50556;DHT22;36508;52.512;13.450;2022-09-24T04:10:57;12.60;99.90
50556;DHT22;36508;52.512;13.450;2022-09-24T04:13:22;12.50;99.90
50556;DHT22;36508;52.512;13.450;2022-09-24T04:15:48;12.60;99.90
50556;DHT22;36508;52.512;13.450;2022-09-24T04:18:16;12.50;99.90
50556;DHT22;36508;52.512;13.450;2022-09-24T04:20:41;12.40;99.90
50556;DHT22;36508;52.512;13.450;2022-09-24T04:23:08;12.50;99.90
50556;DHT22;36508;52.512;13.450;2022-09-24T04:25:34;12.60;99.90
50556;DHT22;36508;52.512;13.450;2022-09-24T04:28:03;12.50;99.90
50556;DHT22;36508;52.512;13.450;2022-09-24T04:30:30;12.60;99.90
50556;DHT22;36508;52.512;13.450;2022-09-24T04:32:56;12.50;99.90
50556;DHT22;36508;52.512;13.450;2022-09-24T04:35:24;12.60;99.90
50556;DHT22;36508;52.512;13.450;2022-09-24T04:37:50;12.50;99.90
50556;DHT22;36508;52.512;13.450;2022-09-24T04:40:16;12.50;99.90
50556;DHT22;36508;52.512;13.450;2022-09-24T04:42:43;12.60;99.90
50556;DHT22;36508;52.512;13.450;2022-09-24T04:45:13;12.50;99.90
50556;DHT22;36508;52.512;13.450;2022-09-24T04:47:42;12.50;99.90
50556;DHT22;36508;52.512;13.450;2022-09-24T04:50:08;12.50;99.90
50556;DHT22;36508;52.512;13.450;2022-09-24T04:52:35;12.50;99.90
50556;DHT22;36508;52.512;13.450;2022-09-24T04:55:01;12.40;99.90
50556;DHT22;36508;52.512;13.450;2022-09-24T04:57:28;12.50;99.90
50556;DHT22;36508;52.512;13.450;2022-09-24T04:59:54;12.40;99.90
50556;DHT22;36508;52.512;13.450;2022-09-24T05:02:19;12.50;99.90
50556;DHT22;36508;52.512;13.450;2022-09-24T05:04:45;12.50;99.90
50556;DHT22;36508;52.512;13.450;2022-09-24T05:07:11;12.50;99.90
50556;DHT22;36508;52.512;13.450;2022-09-24T05:09:36;12.60;99.90
50556;DHT22;36508;52.512;13.450;2022-09-24T05:12:03;12.60;99.90
50556;DHT22;36508;52.512;13.450;2022-09-24T05:14:28;12.60;99.90
50556;DHT22;36508;52.512;13.450;2022-09-24T05:16:55;12.50;99.90
50556;DHT22;36508;52.512;13.450;2022-09-24T05:19:20;12.60;99.90
50556;DHT22;36508;52.512;13.450;2022-09-24T05:21:46;12.50;99.90
50556;DHT22;36508;52.512;13.450;2022-09-24T05:24:12;12.50;99.90
50556;DHT22;36508;52.512;13.450;2022-09-24T05:26:38;12.50;99.90
50556;DHT22;36508;52.512;13.450;2022-09-24T05:29:22;12.50;99.90
50556;DHT22;36508;52.512;13.450;2022-09-24T05:31:47;12.50;99.90
50556;DHT22;36508;52.512;13.450;2022-09-24T05:34:14;12.40;99.90
50556;DHT22;36508;52.512;13.450;2022-09-24T05:36:40;12.40;99.90
50556;DHT22;36508;52.512;13.450;2022-09-24T05:39:08;12.40;99.90
50556;DHT22;36508;52.512;13.450;2022-09-24T05:41:33;12.40;99.90
50556;DHT22;36508;52.512;13.450;2022-09-24T05:43:59;12.50;99.90
50556;DHT22;36508;52.512;13.450;2022-09-24T05:46:25;12.50;99.90
50556;DHT22;36508;52.512;13.450;2022-09-24T05:48:50;12.50;99.90
50556;DHT22;36508;52.512;13.450;2022-09-24T05:51:16;12.50;99.90
50556;DHT22;36508;52.512;13.450;2022-09-24T05:53:41;12.50;99.90
50556;DHT22;36508;52.512;13.450;2022-09-24T05:56:07;12.60;99.90
50556;DHT22;36508;52.512;13.450;2022-09-24T05:58:34;12.70;99.90
50556;DHT22;36508;52.512;13.450;2022-09-24T06:01:00;12.60;99.90
50556;DHT22;36508;52.512;13.450;2022-09-24T06:03:28;12.60;99.90
50556;DHT22;36508;52.512;13.450;2022-09-24T06:05:56;12.60;99.90
50556;DHT22;36508;52.512;13.450;2022-09-24T06:08:29;12.70;99.90
50556;DHT22;36508;52.512;13.450;2022-09-24T06:11:02;12.60;99.90
50556;DHT22;36508;52.512;13.450;2022-09-24T06:13:30;12.70;99.90
50556;DHT22;36508;52.512;13.450;2022-09-24T06:16:05;12.70;99.90
50556;DHT22;36508;52.512;13.450;2022-09-24T06:18:33;12.80;99.90
50556;DHT22;36508;52.512;13.450;2022-09-24T06:21:01;12.80;99.90
50556;DHT22;36508;52.512;13.450;2022-09-24T06:23:28;12.80;99.90
50556;DHT22;36508;52.512;13.450;2022-09-24T06:25:58;12.70;99.90
50556;DHT22;36508;52.512;13.450;2022-09-24T06:28:23;12.80;99.90
50556;DHT22;36508;52.512;13.450;2022-09-24T06:30:52;12.80;99.90
50556;DHT22;36508;52.512;13.450;2022-09-24T06:33:18;12.80;99.90
50556;DHT22;36508;52.512;13.450;2022-09-24T06:35:45;12.90;99.90
50556;DHT22;36508;52.512;13.450;2022-09-24T06:38:13;13.00;99.90
50556;DHT22;36508;52.512;13.450;2022-09-24T06:40:39;13.00;99.90
50556;DHT22;36508;52.512;13.450;2022-09-24T06:43:05;13.10;99.90
50556;DHT22;36508;52.512;13.450;2022-09-24T06:45:32;13.20;99.90
50556;DHT22;36508;52.512;13.450;2022-09-24T06:47:59;13.10;99.90
50556;DHT22;36508;52.512;13.450;2022-09-24T06:50:27;13.30;99.90
50556;DHT22;36508;52.512;13.450;2022-09-24T06:52:53;13.40;99.90
50556;DHT22;36508;52.512;13.450;2022-09-24T06:55:19;13.40;99.90
50556;DHT22;36508;52.512;13.450;2022-09-24T06:57:44;13.50;99.90
50556;DHT22;36508;52.512;13.450;2022-09-24T07:00:11;13.50;99.90
50556;DHT22;36508;52.512;13.450;2022-09-24T07:02:37;13.50;99.90
50556;DHT22;36508;52.512;13.450;2022-09-24T07:05:02;13.50;99.90
50556;DHT22;36508;52.512;13.450;2022-09-24T07:07:28;13.50;99.90
50556;DHT22;36508;52.512;13.450;2022-09-24T07:09:57;13.50;99.90
50556;DHT22;36508;52.512;13.450;2022-09-24T07:12:30;13.40;99.90
50556;DHT22;36508;52.512;13.450;2022-09-24T07:14:57;13.20;99.90
50556;DHT22;36508;52.512;13.450;2022-09-24T07:17:23;13.30;99.90
50556;DHT22;36508;52.512;13.450;2022-09-24T07:19:49;13.30;99.90
50556;DHT22;36508;52.512;13.450;2022-09-24T07:22:15;13.30;99.90
50556;DHT22;36508;52.512;13.450;2022-09-24T07:24:40;13.30;99.90
50556;DHT22;36508;52.512;13.450;2022-09-24T07:27:06;13.30;99.90
50556;DHT22;36508;52.512;13.450;2022-09-24T07:29:32;13.40;99.90
50556;DHT22;36508;52.512;13.450;2022-09-24T07:31:58;13.40;99.90
50556;DHT22;36508;52.512;13.450;2022-09-24T07:34:24;13.30;99.90
50556;DHT22;36508;52.512;13.450;2022-09-24T07:36:51;13.40;99.90
50556;DHT22;36508;52.512;13.450;2022-09-24T07:39:18;13.20;99.90
50556;DHT22;36508;52.512;13.450;2022-09-24T07:41:44;13.50;99.90
50556;DHT22;36508;52.512;13.450;2022-09-24T07:44:10;13.60;99.90
50556;DHT22;36508;52.512;13.450;2022-09-24T07:46:36;13.60;99.90
50556;DHT22;36508;52.512;13.450;2022-09-24T07:49:02;13.70;99.90
50556;DHT22;36508;52.512;13.450;2022-09-24T07:51:28;13.70;99.90
50556;DHT22;36508;52.512;13.450;2022-09-24T07:53:54;13.80;99.90
50556;DHT22;36508;52.512;13.450;2022-09-24T07:56:21;13.80;99.90
50556;DHT22;36508;52.512;13.450;2022-09-24T07:58:48;13.90;99.90
50556;DHT22;36508;52.512;13.450;2022-09-24T08:01:17;13.80;99.90
50556;DHT22;36508;52.512;13.450;2022-09-24T08:03:50;13.60;99.90
50556;DHT22;36508;52.512;13.450;2022-09-24T08:06:16;13.70;99.90
50556;DHT22;36508;52.512;13.450;2022-09-24T08:08:42;13.70;99.90
50556;DHT22;36508;52.512;13.450;2022-09-24T08:11:10;13.50;99.90
50556;DHT22;36508;52.512;13.450;2022-09-24T08:13:37;13.30;99.90
50556;DHT22;36508;52.512;13.450;2022-09-24T08:16:05;13.40;99.90
50556;DHT22;36508;52.512;13.450;2022-09-24T08:18:31;13.50;99.90
50556;DHT22;36508;52.512;13.450;2022-09-24T08:20:58;13.70;99.90
50556;DHT22;36508;52.512;13.450;2022-09-24T08:23:27;13.90;99.90
50556;DHT22;36508;52.512;13.450;2022-09-24T08:25:53;13.90;99.90
50556;DHT22;36508;52.512;13.450;2022-09-24T08:28:19;14.00;99.90
50556;DHT22;36508;52.512;13.450;2022-09-24T08:30:45;13.80;99.90
50556;DHT22;36508;52.512;13.450;2022-09-24T08:33:11;13.70;99.90
50556;DHT22;36508;52.512;13.450;2022-09-24T08:35:37;13.80;99.90
50556;DHT22;36508;52.512;13.450;2022-09-24T08:38:06;13.80;99.90
50556;DHT22;36508;52.512;13.450;2022-09-24T08:40:45;13.80;99.90
50556;DHT22;36508;52.512;13.450;2022-09-24T08:43:22;14.10;99.90
50556;DHT22;36508;52.512;13.450;2022-09-24T08:45:55;14.30;99.90
50556;DHT22;36508;52.512;13.450;2022-09-24T08:48:44;14.30;99.90
50556;DHT22;36508;52.512;13.450;2022-09-24T08:51:14;14.50;99.90
50556;DHT22;36508;52.512;13.450;2022-09-24T08:54:08;14.50;99.90
50556;DHT22;36508;52.512;13.450;2022-09-24T08:56:36;14.70;99.90
50556;DHT22;36508;52.512;13.450;2022-09-24T08:59:48;14.80;99.90
50556;DHT22;36508;52.512;13.450;2022-09-24T09:02:31;15.00;99.90
50556;DHT22;36508;52.512;13.450;2022-09-24T09:10:34;15.10;99.90
50556;DHT22;36508;52.512;13.450;2022-09-24T09:13:10;15.20;99.90
50556;DHT22;36508;52.512;13.450;2022-09-24T09:15:42;15.20;99.90
50556;DHT22;36508;52.512;13.450;2022-09-24T09:18:13;15.30;99.90
50556;DHT22;36508;52.512;13.450;2022-09-24T09:20:42;15.40;99.90
50556;DHT22;36508;52.512;13.450;2022-09-24T09:23:16;15.50;99.90
50556;DHT22;36508;52.512;13.450;2022-09-24T09:26:07;15.40;99.90
50556;DHT22;36508;52.512;13.450;2022-09-24T09:28:34;15.70;99.90
50556;DHT22;36508;52.512;13.450;2022-09-24T09:32:03;16.00;99.90
50556;DHT22;36508;52.512;13.450;2022-09-24T09:34:28;16.10;99.90
50556;DHT22;36508;52.512;13.450;2022-09-24T09:37:28;16.00;99.90
50556;DHT22;36508;52.512;13.450;2022-09-24T09:43:02;16.00;99.90
50556;DHT22;36508;52.512;13.450;2022-09-24T09:45:40;15.90;99.90
50556;DHT22;36508;52.512;13.450;2022-09-24T09:48:09;16.00;99.90
50556;DHT22;36508;52.512;13.450;2022-09-24T09:50:47;15.90;99.90
50556;DHT22;36508;52.512;13.450;2022-09-24T09:53:19;16.00;99.90
50556;DHT22;36508;52.512;13.450;2022-09-24T09:55:54;16.30;99.90
50556;DHT22;36508;52.512;13.450;2022-09-24T09:58:35;16.60;99.90
50556;DHT22;36508;52.512;13.450;2022-09-24T10:01:06;16.70;99.90
50556;DHT22;36508;52.512;13.450;2022-09-24T10:03:48;16.60;99.90
50556;DHT22;36508;52.512;13.450;2022-09-24T10:06:27;16.60;99.90
50556;DHT22;36508;52.512;13.450;2022-09-24T10:08:53;16.70;99.90
50556;DHT22;36508;52.512;13.450;2022-09-24T10:11:32;16.70;99.90
50556;DHT22;36508;52.512;13.450;2022-09-24T10:14:07;16.60;99.90
50556;DHT22;36508;52.512;13.450;2022-09-24T10:16:39;16.50;99.90
50556;DHT22;36508;52.512;13.450;2022-09-24T10:19:21;16.70;99.90
50556;DHT22;36508;52.512;13.450;2022-09-24T10:21:48;16.60;99.90
50556;DHT22;36508;52.512;13.450;2022-09-24T10:24:26;16.80;99.90
50556;DHT22;36508;52.512;13.450;2022-09-24T10:26:57;16.90;99.90
50556;DHT22;36508;52.512;13.450;2022-09-24T10:29:27;16.90;99.90
50556;DHT22;36508;52.512;13.450;2022-09-24T10:32:23;17.00;99.90
50556;DHT22;36508;52.512;13.450;2022-09-24T10:35:18;16.90;99.90
50556;DHT22;36508;52.512;13.450;2022-09-24T10:37:55;17.00;99.90
50556;DHT22;36508;52.512;13.450;2022-09-24T10:40:26;16.90;99.90
50556;DHT22;36508;52.512;13.450;2022-09-24T10:42:57;16.90;99.90
50556;DHT22;36508;52.512;13.450;2022-09-24T10:45:48;16.80;99.90
50556;DHT22;36508;52.512;13.450;2022-09-24T10:48:27;16.90;99.90
50556;DHT22;36508;52.512;13.450;2022-09-24T10:56:46;16.90;99.90
50556;DHT22;36508;52.512;13.450;2022-09-24T11:22:46;17.30;99.90
50556;DHT22;36508;52.512;13.450;2022-09-24T11:27:55;17.80;99.90
50556;DHT22;36508;52.512;13.450;2022-09-24T11:30:34;18.10;99.90
50556;DHT22;36508;52.512;13.450;2022-09-24T11:36:03;18.80;99.90
50556;DHT22;36508;52.512;13.450;2022-09-24T11:38:43;19.10;99.90
50556;DHT22;36508;52.512;13.450;2022-09-24T11:49:46;18.50;99.90
50556;DHT22;36508;52.512;13.450;2022-09-24T11:57:50;18.20;99.90
50556;DHT22;36508;52.512;13.450;2022-09-24T12:00:19;18.10;99.90
50556;DHT22;36508;52.512;13.450;2022-09-24T12:03:00;18.20;99.90
50556;DHT22;36508;52.512;13.450;2022-09-24T12:05:37;18.20;99.90
50556;DHT22;36508;52.512;13.450;2022-09-24T12:08:17;18.30;99.90
50556;DHT22;36508;52.512;13.450;2022-09-24T12:10:58;18.10;99.90
50556;DHT22;36508;52.512;13.450;2022-09-24T12:13:48;18.10;99.90
50556;DHT22;36508;52.512;13.450;2022-09-24T12:16:24;18.00;99.90
50556;DHT22;36508;52.512;13.450;2022-09-24T12:19:12;17.80;99.90
50556;DHT22;36508;52.512;13.450;2022-09-24T12:21:43;17.70;99.90
50556;DHT22;36508;52.512;13.450;2022-09-24T12:24:25;17.60;99.90
50556;DHT22;36508;52.512;13.450;2022-09-24T12:27:08;17.40;99.90
50556;DHT22;36508;52.512;13.450;2022-09-24T12:32:48;17.50;99.90
50556;DHT22;36508;52.512;13.450;2022-09-24T12:35:36;17.40;99.90
50556;DHT22;36508;52.512;13.450;2022-09-24T12:38:12;17.40;99.90
50556;DHT22;36508;52.512;13.450;2022-09-24T12:41:09;17.40;99.90
50556;DHT22;36508;52.512;13.450;2022-09-24T12:44:00;17.60;99.90
50556;DHT22;36508;52.512;13.450;2022-09-24T12:46:50;17.70;99.90
50556;DHT22;36508;52.512;13.450;2022-09-24T12:51:56;18.00;99.90
50556;DHT22;36508;52.512;13.450;2022-09-24T12:56:51;17.90;99.90
50556;DHT22;36508;52.512;13.450;2022-09-24T12:59:27;18.00;99.90
50556;DHT22;36508;52.512;13.450;2022-09-24T13:01:53;18.10;99.90
50556;DHT22;36508;52.512;13.450;2022-09-24T13:06:46;18.40;99.90
50556;DHT22;36508;52.512;13.450;2022-09-24T13:09:34;18.50;99.90
50556;DHT22;36508;52.512;13.450;2022-09-24T13:15:05;18.50;99.90
50556;DHT22;36508;52.512;13.450;2022-09-24T13:17:33;18.30;99.90
50556;DHT22;36508;52.512;13.450;2022-09-24T13:20:06;18.40;99.90
50556;DHT22;36508;52.512;13.450;2022-09-24T13:22:35;18.40;99.90
50556;DHT22;36508;52.512;13.450;2022-09-24T13:27:39;18.40;99.90
50556;DHT22;36508;52.512;13.450;2022-09-24T13:30:18;18.50;99.90
50556;DHT22;36508;52.512;13.450;2022-09-24T13:32:55;18.60;99.90
50556;DHT22;36508;52.512;13.450;2022-09-24T13:35:40;18.70;99.90
50556;DHT22;36508;52.512;13.450;2022-09-24T13:38:29;18.70;99.90
50556;DHT22;36508;52.512;13.450;2022-09-24T13:41:05;18.90;99.90
50556;DHT22;36508;52.512;13.450;2022-09-24T13:43:42;18.80;99.90
50556;DHT22;36508;52.512;13.450;2022-09-24T13:46:14;18.70;99.90
50556;DHT22;36508;52.512;13.450;2022-09-24T13:48:51;18.60;99.90
50556;DHT22;36508;52.512;13.450;2022-09-24T13:51:24;18.50;99.90
50556;DHT22;36508;52.512;13.450;2022-09-24T13:56:20;18.60;99.90
50556;DHT22;36508;52.512;13.450;2022-09-24T13:58:47;18.60;99.90
50556;DHT22;36508;52.512;13.450;2022-09-24T14:01:18;18.60;99.90
50556;DHT22;36508;52.512;13.450;2022-09-24T14:04:13;18.70;99.90
50556;DHT22;36508;52.512;13.450;2022-09-24T14:06:47;18.70;99.90
50556;DHT22;36508;52.512;13.450;2022-09-24T14:09:30;18.80;99.90
50556;DHT22;36508;52.512;13.450;2022-09-24T14:12:00;18.80;99.90
50556;DHT22;36508;52.512;13.450;2022-09-24T14:14:29;18.80;99.90
50556;DHT22;36508;52.512;13.450;2022-09-24T14:17:08;18.70;99.90
50556;DHT22;36508;52.512;13.450;2022-09-24T14:19:36;18.70;99.90
50556;DHT22;36508;52.512;13.450;2022-09-24T14:22:03;18.70;99.90
50556;DHT22;36508;52.512;13.450;2022-09-24T14:24:32;18.70;99.90
50556;DHT22;36508;52.512;13.450;2022-09-24T14:27:02;18.60;99.90
50556;DHT22;36508;52.512;13.450;2022-09-24T14:29:43;18.50;99.90
50556;DHT22;36508;52.512;13.450;2022-09-24T14:32:31;18.40;99.90
50556;DHT22;36508;52.512;13.450;2022-09-24T14:35:05;18.30;99.90
50556;DHT22;36508;52.512;13.450;2022-09-24T14:37:37;18.30;99.90
50556;DHT22;36508;52.512;13.450;2022-09-24T14:40:15;18.40;99.90
50556;DHT22;36508;52.512;13.450;2022-09-24T14:42:47;18.40;99.90
50556;DHT22;36508;52.512;13.450;2022-09-24T14:47:46;18.30;99.90
50556;DHT22;36508;52.512;13.450;2022-09-24T14:50:42;18.20;99.90
50556;DHT22;36508;52.512;13.450;2022-09-24T14:53:28;18.20;99.90
50556;DHT22;36508;52.512;13.450;2022-09-24T14:55:54;18.10;99.90
50556;DHT22;36508;52.512;13.450;2022-09-24T15:00:57;17.90;99.90
50556;DHT22;36508;52.512;13.450;2022-09-24T15:03:41;18.00;99.90
50556;DHT22;36508;52.512;13.450;2022-09-24T15:08:41;17.80;99.90
50556;DHT22;36508;52.512;13.450;2022-09-24T15:11:15;17.80;99.90
50556;DHT22;36508;52.512;13.450;2022-09-24T15:13:42;17.80;99.90
50556;DHT22;36508;52.512;13.450;2022-09-24T15:16:33;17.70;99.90
50556;DHT22;36508;52.512;13.450;2022-09-24T15:19:24;17.50;99.90
50556;DHT22;36508;52.512;13.450;2022-09-24T15:21:57;17.50;99.90
50556;DHT22;36508;52.512;13.450;2022-09-24T15:24:23;17.50;99.90
50556;DHT22;36508;52.512;13.450;2022-09-24T15:27:01;17.60;99.90
50556;DHT22;36508;52.512;13.450;2022-09-24T15:29:27;17.40;99.90
50556;DHT22;36508;52.512;13.450;2022-09-24T15:31:53;17.40;99.90
50556;DHT22;36508;52.512;13.450;2022-09-24T15:34:20;17.20;99.90
50556;DHT22;36508;52.512;13.450;2022-09-24T15:36:47;17.10;99.90
50556;DHT22;36508;52.512;13.450;2022-09-24T15:39:15;17.10;99.90
50556;DHT22;36508;52.512;13.450;2022-09-24T15:41:41;17.20;99.90
50556;DHT22;36508;52.512;13.450;2022-09-24T15:44:20;17.20;99.90
50556;DHT22;36508;52.512;13.450;2022-09-24T15:46:46;17.20;99.90
50556;DHT22;36508;52.512;13.450;2022-09-24T15:49:17;17.30;99.90
50556;DHT22;36508;52.512;13.450;2022-09-24T15:51:59;17.20;99.90
50556;DHT22;36508;52.512;13.450;2022-09-24T15:54:25;17.10;99.90
50556;DHT22;36508;52.512;13.450;2022-09-24T15:56:53;17.20;99.90
50556;DHT22;36508;52.512;13.450;2022-09-24T15:59:19;17.20;99.90
50556;DHT22;36508;52.512;13.450;2022-09-24T16:01:48;17.10;99.90
50556;DHT22;36508;52.512;13.450;2022-09-24T16:04:15;17.10;99.90
50556;DHT22;36508;52.512;13.450;2022-09-24T16:06:42;17.00;99.90
50556;DHT22;36508;52.512;13.450;2022-09-24T16:09:08;17.00;99.90
50556;DHT22;36508;52.512;13.450;2022-09-24T16:11:37;16.90;99.90
50556;DHT22;36508;52.512;13.450;2022-09-24T16:14:02;16.80;99.90
50556;DHT22;36508;52.512;13.450;2022-09-24T16:16:28;16.80;99.90
50556;DHT22;36508;52.512;13.450;2022-09-24T16:18:56;16.90;99.90
50556;DHT22;36508;52.512;13.450;2022-09-24T16:21:22;16.80;99.90
50556;DHT22;36508;52.512;13.450;2022-09-24T16:23:53;16.80;99.90
50556;DHT22;36508;52.512;13.450;2022-09-24T16:26:19;16.80;99.90
50556;DHT22;36508;52.512;13.450;2022-09-24T16:28:44;16.80;99.90
50556;DHT22;36508;52.512;13.450;2022-09-24T16:31:11;16.70;99.90
50556;DHT22;36508;52.512;13.450;2022-09-24T16:33:38;16.60;99.90
50556;DHT22;36508;52.512;13.450;2022-09-24T16:36:05;16.60;99.90
50556;DHT22;36508;52.512;13.450;2022-09-24T16:38:36;16.50;99.90
50556;DHT22;36508;52.512;13.450;2022-09-24T16:41:02;16.40;99.90
50556;DHT22;36508;52.512;13.450;2022-09-24T16:43:28;16.20;99.90
50556;DHT22;36508;52.512;13.450;2022-09-24T16:45:59;16.00;99.90
50556;DHT22;36508;52.512;13.450;2022-09-24T16:48:25;15.90;99.90
50556;DHT22;36508;52.512;13.450;2022-09-24T16:50:51;15.90;99.90
50556;DHT22;36508;52.512;13.450;2022-09-24T16:53:18;15.70;99.90
50556;DHT22;36508;52.512;13.450;2022-09-24T16:55:43;15.50;99.90
50556;DHT22;36508;52.512;13.450;2022-09-24T16:58:09;15.50;99.90
50556;DHT22;36508;52.512;13.450;2022-09-24T17:00:34;15.40;99.90
50556;DHT22;36508;52.512;13.450;2022-09-24T17:03:00;15.40;99.90
50556;DHT22;36508;52.512;13.450;2022-09-24T17:05:26;15.30;99.90
50556;DHT22;36508;52.512;13.450;2022-09-24T17:07:51;15.40;99.90
50556;DHT22;36508;52.512;13.450;2022-09-24T17:10:17;15.50;99.90